メインページ
METAR-TAF:

METAR-TAF

空港 :

Dogonbadan, イラン

緯度: 30-26N, 経度: 050-46E, 海抜: 738m

現時点の気象観測

当レポートは1時間7分前の17:00(UTC)に作成
無風
気温 13°C
湿度 88%
気圧 1016 hPa
視程: 8000m
高度3500ftの雲はほとんどない, 積乱雲.
高度4000ftの雲はほとんどない
高度10000ftの曇り
小雨

METAR: OIAH 171700Z 00000KT 8000 -RA FEW035CB FEW040 OVC100 13/11 Q1016

時間: 21:37 (18:07 UTC)


TAF: 見つかりません

4,000以上の空港の気象観測と天気予報(METAR報とTAF報)

利用可能な観測所は地図上に黄色い丸と赤い丸で示す。

丸の上にカーソルを重ねると観測所名を参照できる。

次にクリックすると気象観測と天気予報を参照できる。

マップの切り替え:黒色「×」印の緑ボタンをクリックして拡大、「-」印の緑ボタンをクリックして縮小、緑色の三角印をクリックして隣りの地図に切り替え


METAR-TAF: